sensor_id;sensor_type;location;lat;lon;timestamp;pressure;altitude;pressure_sealevel;temperature;humidity
42587;BME280;28216;53.362;-6.288;2022-12-07T00:01:34;102593.88;;;4.70;100.00
42587;BME280;28216;53.362;-6.288;2022-12-07T00:04:02;102587.13;;;4.66;100.00
42587;BME280;28216;53.362;-6.288;2022-12-07T00:06:33;102592.50;;;4.63;100.00
42587;BME280;28216;53.362;-6.288;2022-12-07T00:08:59;102594.41;;;4.60;100.00
42587;BME280;28216;53.362;-6.288;2022-12-07T00:11:25;102591.88;;;4.58;100.00
42587;BME280;28216;53.362;-6.288;2022-12-07T00:13:55;102597.16;;;4.57;100.00
42587;BME280;28216;53.362;-6.288;2022-12-07T00:16:23;102587.66;;;4.56;100.00
42587;BME280;28216;53.362;-6.288;2022-12-07T00:18:49;102590.34;;;4.54;100.00
42587;BME280;28216;53.362;-6.288;2022-12-07T00:21:17;102588.75;;;4.52;100.00
42587;BME280;28216;53.362;-6.288;2022-12-07T00:23:44;102585.31;;;4.51;100.00
42587;BME280;28216;53.362;-6.288;2022-12-07T00:26:11;102586.22;;;4.50;100.00
42587;BME280;28216;53.362;-6.288;2022-12-07T00:28:37;102585.38;;;4.50;100.00
42587;BME280;28216;53.362;-6.288;2022-12-07T00:31:09;102585.31;;;4.51;100.00
42587;BME280;28216;53.362;-6.288;2022-12-07T00:33:36;102585.31;;;4.51;100.00
42587;BME280;28216;53.362;-6.288;2022-12-07T00:36:04;102583.47;;;4.53;100.00
42587;BME280;28216;53.362;-6.288;2022-12-07T00:38:31;102579.94;;;4.54;100.00
42587;BME280;28216;53.362;-6.288;2022-12-07T00:40:58;102575.44;;;4.58;100.00
42587;BME280;28216;53.362;-6.288;2022-12-07T00:43:25;102583.00;;;4.62;100.00
42587;BME280;28216;53.362;-6.288;2022-12-07T00:45:50;102575.00;;;4.67;100.00
42587;BME280;28216;53.362;-6.288;2022-12-07T00:48:16;102584.22;;;4.72;100.00
42587;BME280;28216;53.362;-6.288;2022-12-07T00:50:42;102587.59;;;4.74;100.00
42587;BME280;28216;53.362;-6.288;2022-12-07T00:53:07;102586.53;;;4.78;100.00
42587;BME280;28216;53.362;-6.288;2022-12-07T00:55:33;102577.72;;;4.81;100.00
42587;BME280;28216;53.362;-6.288;2022-12-07T00:57:59;102577.41;;;4.87;100.00
42587;BME280;28216;53.362;-6.288;2022-12-07T01:00:24;102582.63;;;4.87;100.00
42587;BME280;28216;53.362;-6.288;2022-12-07T01:02:50;102579.94;;;4.89;100.00
42587;BME280;28216;53.362;-6.288;2022-12-07T01:05:15;102580.78;;;4.89;100.00
42587;BME280;28216;53.362;-6.288;2022-12-07T01:07:41;102577.25;;;4.90;100.00
42587;BME280;28216;53.362;-6.288;2022-12-07T01:10:07;102577.25;;;4.90;100.00
42587;BME280;28216;53.362;-6.288;2022-12-07T01:12:32;102577.25;;;4.90;100.00
42587;BME280;28216;53.362;-6.288;2022-12-07T01:14:58;102575.50;;;4.91;100.00
42587;BME280;28216;53.362;-6.288;2022-12-07T01:17:23;102570.38;;;4.89;100.00
42587;BME280;28216;53.362;-6.288;2022-12-07T01:19:49;102581.63;;;4.90;100.00
42587;BME280;28216;53.362;-6.288;2022-12-07T01:22:14;102574.66;;;4.90;100.00
42587;BME280;28216;53.362;-6.288;2022-12-07T01:24:40;102569.53;;;4.89;100.00
42587;BME280;28216;53.362;-6.288;2022-12-07T01:27:05;102578.94;;;4.91;100.00
42587;BME280;28216;53.362;-6.288;2022-12-07T01:29:30;102572.97;;;4.89;100.00
42587;BME280;28216;53.362;-6.288;2022-12-07T01:31:56;102561.75;;;4.89;100.00
42587;BME280;28216;53.362;-6.288;2022-12-07T01:34:21;102564.19;;;4.92;100.00
42587;BME280;28216;53.362;-6.288;2022-12-07T01:36:47;102565.09;;;4.91;100.00
42587;BME280;28216;53.362;-6.288;2022-12-07T01:39:12;102558.16;;;4.91;100.00
42587;BME280;28216;53.362;-6.288;2022-12-07T01:41:40;102564.25;;;4.90;100.00
42587;BME280;28216;53.362;-6.288;2022-12-07T01:44:12;102560.06;;;4.88;100.00
42587;BME280;28216;53.362;-6.288;2022-12-07T01:46:39;102553.34;;;4.84;100.00
42587;BME280;28216;53.362;-6.288;2022-12-07T01:49:13;102546.47;;;4.83;100.00
42587;BME280;28216;53.362;-6.288;2022-12-07T01:51:40;102549.31;;;4.78;100.00
42587;BME280;28216;53.362;-6.288;2022-12-07T01:54:08;102551.91;;;4.78;100.00
42587;BME280;28216;53.362;-6.288;2022-12-07T01:56:37;102552.13;;;4.73;100.00
42587;BME280;28216;53.362;-6.288;2022-12-07T01:59:05;102548.84;;;4.70;100.00
42587;BME280;28216;53.362;-6.288;2022-12-07T02:01:31;102555.88;;;4.68;100.00
42587;BME280;28216;53.362;-6.288;2022-12-07T02:03:57;102556.03;;;4.65;100.00
42587;BME280;28216;53.362;-6.288;2022-12-07T02:06:24;102556.19;;;4.62;100.00
42587;BME280;28216;53.362;-6.288;2022-12-07T02:08:50;102547.63;;;4.60;100.00
42587;BME280;28216;53.362;-6.288;2022-12-07T02:11:17;102544.97;;;4.61;100.00
42587;BME280;28216;53.362;-6.288;2022-12-07T02:13:43;102548.56;;;4.59;100.00
42587;BME280;28216;53.362;-6.288;2022-12-07T02:21:47;102540.84;;;4.57;100.00
42587;BME280;28216;53.362;-6.288;2022-12-07T02:24:36;102535.72;;;4.56;100.00
42587;BME280;28216;53.362;-6.288;2022-12-07T02:32:22;102537.25;;;4.60;100.00
42587;BME280;28216;53.362;-6.288;2022-12-07T02:35:01;102542.44;;;4.60;100.00
42587;BME280;28216;53.362;-6.288;2022-12-07T02:38:04;102538.00;;;4.62;100.00
42587;BME280;28216;53.362;-6.288;2022-12-07T02:40:38;102537.25;;;4.60;100.00
42587;BME280;28216;53.362;-6.288;2022-12-07T02:43:16;102528.59;;;4.59;100.00
42587;BME280;28216;53.362;-6.288;2022-12-07T02:45:44;102538.22;;;4.57;100.00
42587;BME280;28216;53.362;-6.288;2022-12-07T02:48:13;102530.53;;;4.56;100.00
42587;BME280;28216;53.362;-6.288;2022-12-07T02:50:52;102530.59;;;4.54;100.00
42587;BME280;28216;53.362;-6.288;2022-12-07T02:53:32;102524.56;;;4.54;100.00
42587;BME280;28216;53.362;-6.288;2022-12-07T02:56:23;102522.97;;;4.51;100.00
42587;BME280;28216;53.362;-6.288;2022-12-07T03:04:24;102522.19;;;4.49;100.00
42587;BME280;28216;53.362;-6.288;2022-12-07T03:07:06;102515.31;;;4.48;100.00
42587;BME280;28216;53.362;-6.288;2022-12-07T03:09:39;102514.41;;;4.49;100.00
42587;BME280;28216;53.362;-6.288;2022-12-07T03:12:22;102516.09;;;4.50;100.00
42587;BME280;28216;53.362;-6.288;2022-12-07T03:15:10;102514.41;;;4.49;100.00
42587;BME280;28216;53.362;-6.288;2022-12-07T03:17:39;102514.47;;;4.47;100.00
42587;BME280;28216;53.362;-6.288;2022-12-07T03:20:08;102518.75;;;4.49;100.00
42587;BME280;28216;53.362;-6.288;2022-12-07T03:22:35;102512.72;;;4.48;100.00
42587;BME280;28216;53.362;-6.288;2022-12-07T03:25:07;102509.13;;;4.51;100.00
42587;BME280;28216;53.362;-6.288;2022-12-07T03:27:52;102509.22;;;4.49;100.00
42587;BME280;28216;53.362;-6.288;2022-12-07T03:34:10;102510.13;;;4.48;100.00
42587;BME280;28216;53.362;-6.288;2022-12-07T03:36:48;102509.38;;;4.46;100.00
42587;BME280;28216;53.362;-6.288;2022-12-07T03:41:39;102501.56;;;4.46;100.00
42587;BME280;28216;53.362;-6.288;2022-12-07T03:44:06;102500.66;;;4.47;100.00
42587;BME280;28216;53.362;-6.288;2022-12-07T03:49:25;102499.75;;;4.48;100.00
42587;BME280;28216;53.362;-6.288;2022-12-07T03:54:37;102497.13;;;4.48;100.00
42587;BME280;28216;53.362;-6.288;2022-12-07T03:57:07;102496.44;;;4.44;100.00
42587;BME280;28216;53.362;-6.288;2022-12-07T03:59:33;102499.94;;;4.43;100.00
42587;BME280;28216;53.362;-6.288;2022-12-07T04:02:04;102499.94;;;4.43;100.00
42587;BME280;28216;53.362;-6.288;2022-12-07T04:04:30;102497.41;;;4.42;100.00
42587;BME280;28216;53.362;-6.288;2022-12-07T04:06:56;102496.56;;;4.41;100.00
42587;BME280;28216;53.362;-6.288;2022-12-07T04:09:22;102491.47;;;4.40;100.00
42587;BME280;28216;53.362;-6.288;2022-12-07T04:11:47;102486.41;;;4.37;100.00
42587;BME280;28216;53.362;-6.288;2022-12-07T04:14:13;102479.63;;;4.34;100.00
42587;BME280;28216;53.362;-6.288;2022-12-07T04:16:46;102483.91;;;4.35;100.00
42587;BME280;28216;53.362;-6.288;2022-12-07T04:19:12;102483.91;;;4.35;100.00
42587;BME280;28216;53.362;-6.288;2022-12-07T04:21:38;102483.13;;;4.33;100.00
42587;BME280;28216;53.362;-6.288;2022-12-07T04:24:04;102476.41;;;4.29;100.00
42587;BME280;28216;53.362;-6.288;2022-12-07T04:26:29;102473.13;;;4.26;100.00
42587;BME280;28216;53.362;-6.288;2022-12-07T04:28:55;102470.69;;;4.23;100.00
42587;BME280;28216;53.362;-6.288;2022-12-07T04:31:20;102466.41;;;4.22;100.00
42587;BME280;28216;53.362;-6.288;2022-12-07T04:33:46;102472.53;;;4.21;100.00
42587;BME280;28216;53.362;-6.288;2022-12-07T04:36:11;102464.88;;;4.18;100.00
42587;BME280;28216;53.362;-6.288;2022-12-07T04:38:36;102471.06;;;4.15;100.00
42587;BME280;28216;53.362;-6.288;2022-12-07T04:41:08;102466.94;;;4.11;100.00
42587;BME280;28216;53.362;-6.288;2022-12-07T04:43:34;102461.16;;;4.06;100.00
42587;BME280;28216;53.362;-6.288;2022-12-07T04:46:00;102461.44;;;4.00;100.00
42587;BME280;28216;53.362;-6.288;2022-12-07T04:48:26;102465.94;;;3.96;100.00
42587;BME280;28216;53.362;-6.288;2022-12-07T04:50:51;102464.19;;;3.97;100.00
42587;BME280;28216;53.362;-6.288;2022-12-07T04:53:17;102465.25;;;3.93;100.00
42587;BME280;28216;53.362;-6.288;2022-12-07T04:55:43;102466.09;;;3.93;100.00
42587;BME280;28216;53.362;-6.288;2022-12-07T04:58:09;102457.56;;;3.91;100.00
42587;BME280;28216;53.362;-6.288;2022-12-07T05:00:34;102453.97;;;3.94;100.00
42587;BME280;28216;53.362;-6.288;2022-12-07T05:03:00;102447.84;;;3.95;100.00
42587;BME280;28216;53.362;-6.288;2022-12-07T05:05:25;102455.72;;;3.93;100.00
42587;BME280;28216;53.362;-6.288;2022-12-07T05:07:51;102452.34;;;3.91;100.00
42587;BME280;28216;53.362;-6.288;2022-12-07T05:10:16;102454.81;;;3.94;100.00
42587;BME280;28216;53.362;-6.288;2022-12-07T05:12:42;102452.06;;;3.97;100.00
42587;BME280;28216;53.362;-6.288;2022-12-07T05:15:08;102458.00;;;3.99;100.00
42587;BME280;28216;53.362;-6.288;2022-12-07T05:17:33;102458.84;;;4.00;100.00
42587;BME280;28216;53.362;-6.288;2022-12-07T05:19:59;102457.88;;;4.02;100.00
42587;BME280;28216;53.362;-6.288;2022-12-07T05:22:24;102459.53;;;4.03;100.00
42587;BME280;28216;53.362;-6.288;2022-12-07T05:24:54;102456.09;;;4.03;100.00
42587;BME280;28216;53.362;-6.288;2022-12-07T05:27:19;102456.03;;;4.04;100.00
42587;BME280;28216;53.362;-6.288;2022-12-07T05:29:45;102457.56;;;4.08;100.00
42587;BME280;28216;53.362;-6.288;2022-12-07T05:32:10;102461.75;;;4.11;100.00
42587;BME280;28216;53.362;-6.288;2022-12-07T05:34:36;102459.94;;;4.13;100.00
42587;BME280;28216;53.362;-6.288;2022-12-07T05:37:01;102458.25;;;4.12;100.00
42587;BME280;28216;53.362;-6.288;2022-12-07T05:39:26;102468.56;;;4.13;100.00
42587;BME280;28216;53.362;-6.288;2022-12-07T05:41:52;102464.28;;;4.12;100.00
42587;BME280;28216;53.362;-6.288;2022-12-07T05:44:36;102466.13;;;4.10;100.00
42587;BME280;28216;53.362;-6.288;2022-12-07T05:47:01;102459.31;;;4.08;100.00
42587;BME280;28216;53.362;-6.288;2022-12-07T05:49:27;102454.19;;;4.06;100.00
42587;BME280;28216;53.362;-6.288;2022-12-07T05:51:52;102456.03;;;4.04;100.00
42587;BME280;28216;53.362;-6.288;2022-12-07T05:54:19;102460.31;;;4.05;100.00
42587;BME280;28216;53.362;-6.288;2022-12-07T05:56:45;102454.34;;;4.03;100.00
42587;BME280;28216;53.362;-6.288;2022-12-07T05:59:10;102461.22;;;4.04;100.00
42587;BME280;28216;53.362;-6.288;2022-12-07T06:01:49;102453.59;;;4.01;100.00
42587;BME280;28216;53.362;-6.288;2022-12-07T06:04:15;102455.34;;;4.01;100.00
42587;BME280;28216;53.362;-6.288;2022-12-07T06:06:41;102463.22;;;3.99;100.00
42587;BME280;28216;53.362;-6.288;2022-12-07T06:09:06;102453.97;;;3.94;100.00
42587;BME280;28216;53.362;-6.288;2022-12-07T06:11:32;102453.19;;;3.92;100.00
42587;BME280;28216;53.362;-6.288;2022-12-07T06:14:16;102449.84;;;3.90;100.00
42587;BME280;28216;53.362;-6.288;2022-12-07T06:16:42;102451.66;;;3.88;100.00
42587;BME280;28216;53.362;-6.288;2022-12-07T06:19:07;102446.47;;;3.88;100.00
42587;BME280;28216;53.362;-6.288;2022-12-07T06:21:33;102444.81;;;3.87;100.00
42587;BME280;28216;53.362;-6.288;2022-12-07T06:23:58;102445.72;;;3.86;100.00
42587;BME280;28216;53.362;-6.288;2022-12-07T06:26:24;102433.66;;;3.85;100.00
42587;BME280;28216;53.362;-6.288;2022-12-07T06:28:49;102442.22;;;3.87;100.00
42587;BME280;28216;53.362;-6.288;2022-12-07T06:31:15;102441.38;;;3.86;100.00
42587;BME280;28216;53.362;-6.288;2022-12-07T06:33:41;102444.81;;;3.87;100.00
42587;BME280;28216;53.362;-6.288;2022-12-07T06:36:07;102446.47;;;3.88;100.00
42587;BME280;28216;53.362;-6.288;2022-12-07T06:38:33;102444.88;;;3.85;100.00
42587;BME280;28216;53.362;-6.288;2022-12-07T06:40:58;102444.94;;;3.83;100.00
42587;BME280;28216;53.362;-6.288;2022-12-07T06:43:24;102450.38;;;3.79;100.00
42587;BME280;28216;53.362;-6.288;2022-12-07T06:45:49;102444.41;;;3.77;100.00
42587;BME280;28216;53.362;-6.288;2022-12-07T06:48:16;102438.63;;;3.70;100.00
42587;BME280;28216;53.362;-6.288;2022-12-07T06:50:44;102437.88;;;3.68;100.00
42587;BME280;28216;53.362;-6.288;2022-12-07T06:53:10;102438.09;;;3.64;100.00
42587;BME280;28216;53.362;-6.288;2022-12-07T06:55:35;102442.66;;;3.59;100.00
42587;BME280;28216;53.362;-6.288;2022-12-07T06:58:01;102445.47;;;3.54;100.00
42587;BME280;28216;53.362;-6.288;2022-12-07T07:00:27;102437.06;;;3.49;100.00
42587;BME280;28216;53.362;-6.288;2022-12-07T07:02:53;102433.78;;;3.45;100.00
42587;BME280;28216;53.362;-6.288;2022-12-07T07:05:19;102436.59;;;3.41;100.00
42587;BME280;28216;53.362;-6.288;2022-12-07T07:07:48;102435.06;;;3.37;100.00
42587;BME280;28216;53.362;-6.288;2022-12-07T07:10:14;102445.50;;;3.35;100.00
42587;BME280;28216;53.362;-6.288;2022-12-07T07:12:39;102438.72;;;3.33;100.00
42587;BME280;28216;53.362;-6.288;2022-12-07T07:15:05;102437.09;;;3.30;100.00
42587;BME280;28216;53.362;-6.288;2022-12-07T07:17:30;102436.34;;;3.28;100.00
42587;BME280;28216;53.362;-6.288;2022-12-07T07:19:56;102434.66;;;3.27;100.00
42587;BME280;28216;53.362;-6.288;2022-12-07T07:22:21;102434.72;;;3.26;100.00
42587;BME280;28216;53.362;-6.288;2022-12-07T07:24:47;102434.72;;;3.26;100.00
42587;BME280;28216;53.362;-6.288;2022-12-07T07:27:12;102429.53;;;3.26;100.00
42587;BME280;28216;53.362;-6.288;2022-12-07T07:29:38;102423.44;;;3.27;100.00
42587;BME280;28216;53.362;-6.288;2022-12-07T07:32:03;102429.47;;;3.27;100.00
42587;BME280;28216;53.362;-6.288;2022-12-07T07:34:29;102425.06;;;3.29;100.00
42587;BME280;28216;53.362;-6.288;2022-12-07T07:36:54;102434.56;;;3.29;100.00
42587;BME280;28216;53.362;-6.288;2022-12-07T07:39:20;102431.00;;;3.31;100.00
42587;BME280;28216;53.362;-6.288;2022-12-07T07:41:46;102431.78;;;3.33;100.00
42587;BME280;28216;53.362;-6.288;2022-12-07T07:44:12;102430.78;;;3.36;100.00
42587;BME280;28216;53.362;-6.288;2022-12-07T07:46:37;102433.84;;;3.44;100.00
42587;BME280;28216;53.362;-6.288;2022-12-07T07:49:03;102437.91;;;3.49;100.00
42587;BME280;28216;53.362;-6.288;2022-12-07T07:51:28;102440.22;;;3.56;100.00
42587;BME280;28216;53.362;-6.288;2022-12-07T07:53:54;102432.16;;;3.62;100.00
42587;BME280;28216;53.362;-6.288;2022-12-07T07:56:19;102430.38;;;3.62;100.00
42587;BME280;28216;53.362;-6.288;2022-12-07T07:58:44;102437.34;;;3.62;100.00
42587;BME280;28216;53.362;-6.288;2022-12-07T08:01:30;102438.09;;;3.64;100.00
42587;BME280;28216;53.362;-6.288;2022-12-07T08:03:56;102443.34;;;3.62;100.00
42587;BME280;28216;53.362;-6.288;2022-12-07T08:06:21;102438.25;;;3.61;100.00
42587;BME280;28216;53.362;-6.288;2022-12-07T08:08:46;102442.59;;;3.60;100.00
42587;BME280;28216;53.362;-6.288;2022-12-07T08:11:12;102443.50;;;3.59;100.00
42587;BME280;28216;53.362;-6.288;2022-12-07T08:13:37;102442.75;;;3.57;100.00
42587;BME280;28216;53.362;-6.288;2022-12-07T08:16:08;102442.75;;;3.57;100.00
42587;BME280;28216;53.362;-6.288;2022-12-07T08:18:39;102436.84;;;3.54;100.00
42587;BME280;28216;53.362;-6.288;2022-12-07T08:21:07;102441.28;;;3.51;100.00
42587;BME280;28216;53.362;-6.288;2022-12-07T08:23:33;102442.34;;;3.47;100.00
42587;BME280;28216;53.362;-6.288;2022-12-07T08:26:03;102447.59;;;3.46;100.00
42587;BME280;28216;53.362;-6.288;2022-12-07T08:28:29;102438.28;;;3.42;100.00
42587;BME280;28216;53.362;-6.288;2022-12-07T08:31:00;102435.84;;;3.39;100.00
42587;BME280;28216;53.362;-6.288;2022-12-07T08:33:26;102435.13;;;3.35;100.00
42587;BME280;28216;53.362;-6.288;2022-12-07T08:35:52;102429.25;;;3.32;100.00
42587;BME280;28216;53.362;-6.288;2022-12-07T08:38:17;102434.88;;;3.23;100.00
42587;BME280;28216;53.362;-6.288;2022-12-07T08:40:42;102433.47;;;3.15;100.00
42587;BME280;28216;53.362;-6.288;2022-12-07T08:43:08;102424.28;;;3.08;100.00
42587;BME280;28216;53.362;-6.288;2022-12-07T08:45:33;102422.81;;;3.03;100.00
42587;BME280;28216;53.362;-6.288;2022-12-07T08:48:12;102426.41;;;3.00;100.00
42587;BME280;28216;53.362;-6.288;2022-12-07T08:50:39;102424.88;;;2.95;100.00
42587;BME280;28216;53.362;-6.288;2022-12-07T08:53:05;102437.97;;;2.92;100.00
42587;BME280;28216;53.362;-6.288;2022-12-07T08:55:33;102440.72;;;2.88;100.00
42587;BME280;28216;53.362;-6.288;2022-12-07T08:57:59;102442.53;;;2.86;100.00
42587;BME280;28216;53.362;-6.288;2022-12-07T09:00:26;102440.06;;;2.83;100.00
42587;BME280;28216;53.362;-6.288;2022-12-07T09:02:53;102441.06;;;2.81;100.00
42587;BME280;28216;53.362;-6.288;2022-12-07T09:05:18;102427.41;;;2.77;100.00
42587;BME280;28216;53.362;-6.288;2022-12-07T09:07:47;102423.97;;;2.77;100.00
42587;BME280;28216;53.362;-6.288;2022-12-07T09:10:14;102430.00;;;2.77;100.00
42587;BME280;28216;53.362;-6.288;2022-12-07T09:12:40;102423.97;;;2.77;100.00
42587;BME280;28216;53.362;-6.288;2022-12-07T09:15:06;102429.22;;;2.75;100.00
42587;BME280;28216;53.362;-6.288;2022-12-07T09:17:32;102431.88;;;2.74;100.00
42587;BME280;28216;53.362;-6.288;2022-12-07T09:19:58;102447.56;;;2.71;100.00
42587;BME280;28216;53.362;-6.288;2022-12-07T09:22:23;102438.09;;;2.70;100.00
42587;BME280;28216;53.362;-6.288;2022-12-07T09:24:49;102430.31;;;2.70;100.00
42587;BME280;28216;53.362;-6.288;2022-12-07T09:27:14;102435.50;;;2.70;100.00
42587;BME280;28216;53.362;-6.288;2022-12-07T09:29:41;102428.66;;;2.69;100.00
42587;BME280;28216;53.362;-6.288;2022-12-07T09:32:07;102436.34;;;2.70;100.00
42587;BME280;28216;53.362;-6.288;2022-12-07T09:34:32;102429.50;;;2.69;100.00
42587;BME280;28216;53.362;-6.288;2022-12-07T09:37:00;102426.00;;;2.70;100.00
42587;BME280;28216;53.362;-6.288;2022-12-07T09:39:25;102432.00;;;2.71;100.00
42587;BME280;28216;53.362;-6.288;2022-12-07T09:41:52;102437.97;;;2.73;100.00
42587;BME280;28216;53.362;-6.288;2022-12-07T09:44:23;102437.06;;;2.74;100.00
42587;BME280;28216;53.362;-6.288;2022-12-07T09:46:49;102437.91;;;2.74;100.00
42587;BME280;28216;53.362;-6.288;2022-12-07T09:49:24;102440.41;;;2.76;100.00
42587;BME280;28216;53.362;-6.288;2022-12-07T09:54:36;102431.31;;;2.86;100.00
42587;BME280;28216;53.362;-6.288;2022-12-07T09:57:03;102430.00;;;2.96;100.00
42587;BME280;28216;53.362;-6.288;2022-12-07T09:59:29;102427.94;;;3.04;100.00
42587;BME280;28216;53.362;-6.288;2022-12-07T10:01:55;102420.59;;;3.14;100.00
42587;BME280;28216;53.362;-6.288;2022-12-07T10:04:26;102417.69;;;3.20;100.00
42587;BME280;28216;53.362;-6.288;2022-12-07T10:06:52;102412.38;;;3.23;100.00
42587;BME280;28216;53.362;-6.288;2022-12-07T10:09:20;102414.97;;;3.23;100.00
42587;BME280;28216;53.362;-6.288;2022-12-07T10:12:06;102414.81;;;3.26;100.00
42587;BME280;28216;53.362;-6.288;2022-12-07T10:14:39;102420.91;;;3.25;100.00
42587;BME280;28216;53.362;-6.288;2022-12-07T10:17:31;102413.91;;;3.27;100.00
42587;BME280;28216;53.362;-6.288;2022-12-07T10:20:25;102414.69;;;3.29;100.00
42587;BME280;28216;53.362;-6.288;2022-12-07T10:23:03;102412.22;;;3.26;100.00
42587;BME280;28216;53.362;-6.288;2022-12-07T10:25:35;102407.13;;;3.25;100.00
42587;BME280;28216;53.362;-6.288;2022-12-07T10:30:33;102404.53;;;3.25;100.00
42587;BME280;28216;53.362;-6.288;2022-12-07T10:33:30;102407.81;;;3.28;100.00
42587;BME280;28216;53.362;-6.288;2022-12-07T10:35:57;102406.97;;;3.28;100.00
42587;BME280;28216;53.362;-6.288;2022-12-07T10:38:25;102394.09;;;3.26;100.00
42587;BME280;28216;53.362;-6.288;2022-12-07T10:41:06;102393.94;;;3.29;100.00
42587;BME280;28216;53.362;-6.288;2022-12-07T10:43:33;102400.72;;;3.32;100.00
42587;BME280;28216;53.362;-6.288;2022-12-07T10:49:01;102379.00;;;3.34;100.00
42587;BME280;28216;53.362;-6.288;2022-12-07T10:54:35;102374.44;;;3.39;100.00
42587;BME280;28216;53.362;-6.288;2022-12-07T11:00:03;102376.66;;;3.47;100.00
42587;BME280;28216;53.362;-6.288;2022-12-07T11:02:50;102374.84;;;3.49;100.00
42587;BME280;28216;53.362;-6.288;2022-12-07T11:08:20;102366.53;;;3.60;100.00
42587;BME280;28216;53.362;-6.288;2022-12-07T11:14:09;102366.25;;;3.66;100.00
42587;BME280;28216;53.362;-6.288;2022-12-07T11:22:42;102364.22;;;3.72;100.00
42587;BME280;28216;53.362;-6.288;2022-12-07T11:25:25;102355.28;;;3.78;100.00
42587;BME280;28216;53.362;-6.288;2022-12-07T11:28:21;102361.16;;;3.81;100.00
42587;BME280;28216;53.362;-6.288;2022-12-07T11:36:37;102347.72;;;3.91;100.00
42587;BME280;28216;53.362;-6.288;2022-12-07T11:39:33;102351.84;;;3.95;100.00
42587;BME280;28216;53.362;-6.288;2022-12-07T11:42:06;102355.13;;;3.98;100.00
42587;BME280;28216;53.362;-6.288;2022-12-07T11:44:50;102350.63;;;4.02;100.00
42587;BME280;28216;53.362;-6.288;2022-12-07T11:52:56;102333.81;;;4.09;100.00
42587;BME280;28216;53.362;-6.288;2022-12-07T11:55:47;102332.06;;;4.09;100.00
42587;BME280;28216;53.362;-6.288;2022-12-07T12:03:54;102309.22;;;4.16;100.00
42587;BME280;28216;53.362;-6.288;2022-12-07T12:06:23;102304.69;;;4.20;100.00
42587;BME280;28216;53.362;-6.288;2022-12-07T12:09:02;102296.84;;;4.21;100.00
42587;BME280;28216;53.362;-6.288;2022-12-07T12:14:21;102305.47;;;4.22;100.00
42587;BME280;28216;53.362;-6.288;2022-12-07T12:17:18;102305.28;;;4.25;100.00
42587;BME280;28216;53.362;-6.288;2022-12-07T12:31:31;102284.72;;;4.37;100.00
42587;BME280;28216;53.362;-6.288;2022-12-07T12:34:02;102282.94;;;4.38;100.00
42587;BME280;28216;53.362;-6.288;2022-12-07T12:51:52;102252.41;;;4.74;100.00
42587;BME280;28216;53.362;-6.288;2022-12-07T12:54:33;102250.56;;;4.76;100.00
42587;BME280;28216;53.362;-6.288;2022-12-07T12:57:39;102252.22;;;4.77;100.00
42587;BME280;28216;53.362;-6.288;2022-12-07T12:59:59;102250.38;;;4.79;100.00
42587;BME280;28216;53.362;-6.288;2022-12-07T13:15:49;102232.69;;;4.86;100.00
42587;BME280;28216;53.362;-6.288;2022-12-07T13:21:01;102226.47;;;4.89;100.00
42587;BME280;28216;53.362;-6.288;2022-12-07T13:23:38;102228.16;;;4.90;100.00
42587;BME280;28216;53.362;-6.288;2022-12-07T13:28:52;102220.38;;;4.90;100.00
42587;BME280;28216;53.362;-6.288;2022-12-07T13:31:34;102218.69;;;4.89;100.00
42587;BME280;28216;53.362;-6.288;2022-12-07T13:34:01;102222.03;;;4.91;100.00
42587;BME280;28216;53.362;-6.288;2022-12-07T13:36:37;102220.38;;;4.90;100.00
42587;BME280;28216;53.362;-6.288;2022-12-07T13:39:24;102213.41;;;4.90;100.00
42587;BME280;28216;53.362;-6.288;2022-12-07T13:42:11;102203.94;;;4.89;100.00
42587;BME280;28216;53.362;-6.288;2022-12-07T13:44:41;102210.88;;;4.89;100.00
42587;BME280;28216;53.362;-6.288;2022-12-07T13:47:14;102207.53;;;4.87;100.00
42587;BME280;28216;53.362;-6.288;2022-12-07T13:49:53;102204.03;;;4.88;100.00
42587;BME280;28216;53.362;-6.288;2022-12-07T13:52:24;102199.66;;;4.88;100.00
42587;BME280;28216;53.362;-6.288;2022-12-07T13:57:30;102196.97;;;4.90;100.00
42587;BME280;28216;53.362;-6.288;2022-12-07T13:59:57;102197.91;;;4.89;100.00
42587;BME280;28216;53.362;-6.288;2022-12-07T14:02:34;102187.41;;;4.90;100.00
42587;BME280;28216;53.362;-6.288;2022-12-07T14:05:30;102190.84;;;4.91;100.00
42587;BME280;28216;53.362;-6.288;2022-12-07T14:08:04;102186.41;;;4.93;100.00
42587;BME280;28216;53.362;-6.288;2022-12-07T14:10:35;102188.06;;;4.94;100.00
42587;BME280;28216;53.362;-6.288;2022-12-07T14:13:03;102174.25;;;4.93;100.00
42587;BME280;28216;53.362;-6.288;2022-12-07T14:15:31;102176.94;;;4.92;100.00
42587;BME280;28216;53.362;-6.288;2022-12-07T14:17:59;102164.03;;;4.90;100.00
42587;BME280;28216;53.362;-6.288;2022-12-07T14:20:31;102158.91;;;4.89;100.00
42587;BME280;28216;53.362;-6.288;2022-12-07T14:22:57;102159.94;;;4.86;100.00
42587;BME280;28216;53.362;-6.288;2022-12-07T14:25:25;102152.31;;;4.83;100.00
42587;BME280;28216;53.362;-6.288;2022-12-07T14:27:53;102154.91;;;4.83;100.00
42587;BME280;28216;53.362;-6.288;2022-12-07T14:30:22;102151.38;;;4.84;100.00
42587;BME280;28216;53.362;-6.288;2022-12-07T14:32:54;102154.06;;;4.83;100.00
42587;BME280;28216;53.362;-6.288;2022-12-07T14:35:20;102146.44;;;4.79;100.00
42587;BME280;28216;53.362;-6.288;2022-12-07T14:37:47;102144.78;;;4.78;100.00
42587;BME280;28216;53.362;-6.288;2022-12-07T14:40:28;102147.47;;;4.77;100.00
42587;BME280;28216;53.362;-6.288;2022-12-07T14:42:57;102136.31;;;4.75;100.00
42587;BME280;28216;53.362;-6.288;2022-12-07T14:45:28;102128.53;;;4.75;100.00
42587;BME280;28216;53.362;-6.288;2022-12-07T14:47:54;102130.38;;;4.73;100.00
42587;BME280;28216;53.362;-6.288;2022-12-07T14:50:21;102140.03;;;4.71;100.00
42587;BME280;28216;53.362;-6.288;2022-12-07T14:53:00;102133.06;;;4.71;100.00
42587;BME280;28216;53.362;-6.288;2022-12-07T14:55:30;102135.84;;;4.68;100.00